This demonstration page uses our WeatherBlox Daily Observations layout. Learn more.

Left ArrowRight Arrow

36.17497, -115.13722

Hourly Observations for January 30, 2020

Temp ( °F °C ) Dew Point ( °F °C ) Humidity (%) Winds ( mph kmh ) Pressure ( in mb ) Visibility ( mi km ) Precip ( " mm )
12:53 am 00:53 Clear 50 10 19 -7.2 29 29 NNE 7 11 30.19 1022 10 16.0934 0 0
1:53 am 01:53 Clear 47 8.3 19 -7.2 33 33 NW 7 11 30.2 1023 10 16.0934 0 0
2:53 am 02:53 Clear 47 8.3 19 -7.2 33 33 NW 7 11 30.2 1023 10 16.0934 0 0
3:53 am 03:53 Clear 46 7.8 20 -6.7 35 35 NW 7 11 30.2 1023 10 16.0934 0 0
4:53 am 04:53 Clear 45 7.2 20 -6.7 37 37 NW 10 17 30.2 1023 10 16.0934 0 0
5:53 am 05:53 Clear 43 6.1 20 -6.7 40 40 NNW 9 15 30.22 1024 10 16.0934 0 0
6:53 am 06:53 Sunny 46 7.8 20 -6.7 35 35 NNW 5 7 30.23 1024 10 16.0934 0 0
7:53 am 07:53 Sunny 47 8.3 20 -6.7 34 34 WNW 8 13 30.23 1024 10 16.0934 0 0
8:53 am 08:53 Sunny 51 10.6 20 -6.7 29 29 NNW 12 19 30.24 1024 10 16.0934 0 0
9:53 am 09:53 Sunny 53 11.7 21 -6.1 28 28 NNE 3 6 30.26 1025 10 16.0934 0 0
10:53 am 10:53 Sunny 56 13.3 21 -6.1 26 26 E 3 6 30.24 1024 10 16.0934 0 0
11:53 am 11:53 Sunny 57 13.9 20 -6.7 24 24 ESE 6 9 30.23 1024 10 16.0934 0 0
12:53 pm 12:53 Sunny 60 15.6 19 -7.2 20 20 SSE 7 11 30.21 1023 10 16.0934 0 0
1:53 pm 13:53 Sunny 63 17.2 21 -6.1 20 20 E 6 9 30.19 1022 10 16.0934 0 0
2:53 pm 14:53 Sunny 64 17.8 22 -5.6 20 20 ESE 7 11 30.19 1022 10 16.0934 0 0
3:53 pm 15:53 Sunny 64 17.8 21 -6.1 19 19 SSW 3 6 30.19 1022 10 16.0934 0 0
4:53 pm 16:53 Sunny 61 16.1 23 -5 23 23 SE 3 6 30.2 1023 10 16.0934 0 0
5:53 pm 17:53 Clear 58 14.4 23 -5 26 26 Calm 30.23 1024 10 16.0934 0 0
6:53 pm 18:53 Clear 56 13.3 24 -4.4 29 29 E 5 7 30.26 1025 10 16.0934 0 0
7:53 pm 19:53 Clear 56 13.3 26 -3.3 32 32 NE 14 22 30.29 1026 10 16.0934 0 0
8:53 pm 20:53 Clear 53 11.7 27 -2.8 37 37 W 5 7 30.3 1026 10 16.0934 0 0
9:53 pm 21:53 Clear 52 11.1 27 -2.8 38 38 undefined N/A 30.32 1027 10 16.0934 0 0
10:53 pm 22:53 Clear 51 10.6 27 -2.8 39 39 Calm 30.32 1027 10 16.0934 0 0
11:53 pm 23:53 Clear 51 10.6 26 -3.3 38 38 Calm 30.33 1027 10 16.0934 0 0

Powered by AerisWeather